createdAt,value
2022-11-04T00:02:04.976Z,11.13
2022-11-04T00:04:33.586Z,11.34
2022-11-04T00:07:01.951Z,11.45
2022-11-04T00:09:31.545Z,11.48
2022-11-04T00:12:25.877Z,11.28
2022-11-04T00:14:54.417Z,11.26
2022-11-04T00:17:23.534Z,11.14
2022-11-04T00:20:08.063Z,11.16
2022-11-04T00:22:54.870Z,11.24
2022-11-04T00:28:33.711Z,11.14
2022-11-04T00:31:24.211Z,10.87
2022-11-04T00:33:54.995Z,10.85
2022-11-04T00:36:25.728Z,10.77
2022-11-04T00:38:54.562Z,11.04
2022-11-04T00:41:30.347Z,11.12
2022-11-04T00:44:01.275Z,10.94
2022-11-04T00:46:31.488Z,11.11
2022-11-04T00:49:01.675Z,11.26
2022-11-04T00:51:30.336Z,11.02
2022-11-04T00:53:59.150Z,11.17
2022-11-04T00:56:27.513Z,11.30
2022-11-04T00:58:55.825Z,11.16
2022-11-04T01:01:24.291Z,11.28
2022-11-04T01:03:55.571Z,11.13
2022-11-04T01:06:27.635Z,11.36
2022-11-04T01:09:01.271Z,11.04
2022-11-04T01:11:31.331Z,11.11
2022-11-04T01:14:00.089Z,10.99
2022-11-04T01:16:29.539Z,11.00
2022-11-04T01:18:58.790Z,10.84
2022-11-04T01:21:28.521Z,11.15
2022-11-04T01:23:57.557Z,11.11
2022-11-04T01:26:27.334Z,11.12
2022-11-04T01:28:57.641Z,11.04
2022-11-04T01:31:29.399Z,10.93
2022-11-04T01:33:59.517Z,10.86
2022-11-04T01:36:29.715Z,10.80
2022-11-04T01:38:58.645Z,10.81
2022-11-04T01:41:29.463Z,10.74
2022-11-04T01:44:00.939Z,10.85
2022-11-04T01:46:38.091Z,10.78
2022-11-04T01:49:23.322Z,10.94
2022-11-04T01:52:00.548Z,10.97
2022-11-04T01:54:30.204Z,10.88
2022-11-04T01:57:02.064Z,10.87
2022-11-04T01:59:36.351Z,10.90
2022-11-04T02:02:05.272Z,10.85
2022-11-04T02:04:33.853Z,10.75
2022-11-04T02:07:07.485Z,10.76
2022-11-04T02:09:38.676Z,10.57
2022-11-04T02:12:25.281Z,10.93
2022-11-04T02:14:55.396Z,10.95
2022-11-04T02:17:54.064Z,10.72
2022-11-04T02:20:42.101Z,10.82
2022-11-04T02:24:02.741Z,10.85
2022-11-04T02:27:19.841Z,11.04
2022-11-04T02:30:09.890Z,10.78
2022-11-04T02:33:12.795Z,10.84
2022-11-04T02:35:51.575Z,10.95
2022-11-04T02:38:33.944Z,10.79
2022-11-04T02:41:14.827Z,10.98
2022-11-04T02:43:54.121Z,10.98
2022-11-04T02:46:31.551Z,10.81
2022-11-04T02:49:07.313Z,10.62
2022-11-04T02:51:42.250Z,10.55
2022-11-04T02:54:15.456Z,10.66
2022-11-04T02:56:49.885Z,10.72
2022-11-04T02:59:28.729Z,10.22
2022-11-04T03:02:02.399Z,10.26
2022-11-04T03:04:35.100Z,10.52
2022-11-04T03:07:05.447Z,10.59
2022-11-04T03:09:35.850Z,10.72
2022-11-04T03:12:09.057Z,10.78
2022-11-04T03:14:42.338Z,10.56
2022-11-04T03:17:20.831Z,10.51
2022-11-04T03:19:56.039Z,10.18
2022-11-04T03:22:26.971Z,10.46
2022-11-04T03:24:56.256Z,10.50
2022-11-04T03:27:31.300Z,10.50
2022-11-04T03:30:05.083Z,10.45
2022-11-04T03:32:44.751Z,10.52
2022-11-04T03:35:15.625Z,10.62
2022-11-04T03:37:44.737Z,10.46
2022-11-04T03:40:14.709Z,10.16
2022-11-04T03:42:50.736Z,10.29
2022-11-04T03:45:19.335Z,10.42
2022-11-04T03:47:49.263Z,10.30
2022-11-04T03:50:28.375Z,10.30
2022-11-04T03:52:57.971Z,10.29
2022-11-04T03:55:51.454Z,10.41
2022-11-04T03:58:35.845Z,10.62
2022-11-04T04:01:22.714Z,10.40
2022-11-04T04:04:00.622Z,10.61
2022-11-04T04:06:32.466Z,10.62
2022-11-04T04:09:10.216Z,10.57
2022-11-04T04:11:47.833Z,10.39
2022-11-04T04:14:36.860Z,10.73
2022-11-04T04:19:52.314Z,10.77
2022-11-04T04:22:26.223Z,10.87
2022-11-04T04:25:19.329Z,10.60
2022-11-04T04:27:50.760Z,10.69
2022-11-04T04:30:19.495Z,10.43
2022-11-04T04:32:51.930Z,10.25
2022-11-04T04:35:45.626Z,10.51
2022-11-04T04:38:39.595Z,10.31
2022-11-04T04:41:32.635Z,10.29
2022-11-04T04:44:18.683Z,10.33
2022-11-04T04:46:50.999Z,10.06
2022-11-04T04:49:19.563Z,9.85
2022-11-04T04:51:49.945Z,9.74
2022-11-04T04:54:18.320Z,10.04
2022-11-04T04:56:46.636Z,9.85
2022-11-04T04:59:14.944Z,9.46
2022-11-04T05:01:43.280Z,9.86
2022-11-04T05:04:11.637Z,9.56
2022-11-04T05:06:39.962Z,9.74
2022-11-04T05:09:09.839Z,9.81
2022-11-04T05:11:38.162Z,9.51
2022-11-04T05:14:06.413Z,9.77
2022-11-04T05:16:40.425Z,9.73
2022-11-04T05:19:09.172Z,9.57
2022-11-04T05:21:37.547Z,9.70
2022-11-04T05:24:06.400Z,8.98
2022-11-04T05:26:36.057Z,9.58
2022-11-04T05:29:04.562Z,9.61
2022-11-04T05:31:32.950Z,9.46
2022-11-04T05:34:01.316Z,9.63
2022-11-04T05:36:29.641Z,9.64
2022-11-04T05:38:57.999Z,9.68
2022-11-04T05:41:29.020Z,9.66
2022-11-04T05:44:01.263Z,9.68
2022-11-04T05:46:30.591Z,9.47
2022-11-04T05:48:58.860Z,9.51
2022-11-04T05:51:29.855Z,9.22
2022-11-04T05:53:58.224Z,9.58
2022-11-04T05:56:26.567Z,9.62
2022-11-04T05:58:55.267Z,9.52
2022-11-04T06:01:32.855Z,9.22
2022-11-04T06:04:02.275Z,9.39
2022-11-04T06:06:33.546Z,9.35
2022-11-04T06:09:03.571Z,9.60
2022-11-04T06:11:32.817Z,9.41
2022-11-04T06:14:01.402Z,9.34
2022-11-04T06:16:31.256Z,9.38
2022-11-04T06:19:03.406Z,9.49
2022-11-04T06:21:36.135Z,9.50
2022-11-04T06:24:04.712Z,9.47
2022-11-04T06:26:33.274Z,9.51
2022-11-04T06:29:01.550Z,9.52
2022-11-04T06:31:34.134Z,9.53
2022-11-04T06:34:02.635Z,9.51
2022-11-04T06:36:31.023Z,9.49
2022-11-04T06:39:04.450Z,9.36
2022-11-04T06:41:33.541Z,9.39
2022-11-04T06:44:02.037Z,9.46
2022-11-04T06:46:37.361Z,9.46
2022-11-04T06:49:07.484Z,9.29
2022-11-04T06:51:35.946Z,9.44
2022-11-04T06:54:04.565Z,9.27
2022-11-04T06:56:33.116Z,9.51
2022-11-04T06:59:01.521Z,9.46
2022-11-04T07:01:36.832Z,9.48
2022-11-04T07:04:06.581Z,9.48
2022-11-04T07:06:37.268Z,9.54
2022-11-04T07:09:08.762Z,9.41
2022-11-04T07:11:37.119Z,9.56
2022-11-04T07:14:05.495Z,9.56
2022-11-04T07:16:35.204Z,9.55
2022-11-04T07:19:04.028Z,9.57
2022-11-04T07:21:32.908Z,9.54
2022-11-04T07:24:02.408Z,9.27
2022-11-04T07:26:30.990Z,9.69
2022-11-04T07:29:00.972Z,9.74
2022-11-04T07:31:29.697Z,9.70
2022-11-04T07:33:59.417Z,9.34
2022-11-04T07:36:27.748Z,9.82
2022-11-04T07:38:56.081Z,9.83
2022-11-04T07:41:24.701Z,9.92
2022-11-04T07:43:54.843Z,9.95
2022-11-04T07:46:23.175Z,9.90
2022-11-04T07:48:51.752Z,9.96
2022-11-04T07:51:22.332Z,9.77
2022-11-04T07:53:50.691Z,10.00
2022-11-04T07:56:20.034Z,9.87
2022-11-04T07:58:48.310Z,10.12
2022-11-04T08:01:20.226Z,10.29
2022-11-04T08:03:49.971Z,10.71
2022-11-04T08:06:21.353Z,9.87
2022-11-04T08:08:49.766Z,10.75
2022-11-04T08:11:21.223Z,10.48
2022-11-04T08:13:50.167Z,10.96
2022-11-04T08:16:21.971Z,10.76
2022-11-04T08:18:52.849Z,11.09
2022-11-04T08:21:22.757Z,11.18
2022-11-04T08:23:51.648Z,11.22
2022-11-04T08:26:23.311Z,11.65
2022-11-04T08:28:52.799Z,11.69
2022-11-04T08:31:24.269Z,11.71
2022-11-04T08:33:53.371Z,11.69
2022-11-04T08:36:25.861Z,11.84
2022-11-04T08:38:54.923Z,11.61
2022-11-04T08:41:26.645Z,11.98
2022-11-04T08:43:56.515Z,12.13
2022-11-04T08:46:24.895Z,12.05
2022-11-04T08:48:53.199Z,11.60
2022-11-04T08:51:26.782Z,11.76
2022-11-04T08:53:55.288Z,11.79
2022-11-04T08:56:26.845Z,11.67
2022-11-04T08:58:57.352Z,11.56
2022-11-04T09:01:32.700Z,11.74
2022-11-04T09:04:04.433Z,11.83
2022-11-04T09:06:37.918Z,12.21
2022-11-04T09:09:07.671Z,12.21
2022-11-04T09:11:40.887Z,12.24
2022-11-04T09:14:10.175Z,12.33
2022-11-04T09:16:40.461Z,12.38
2022-11-04T09:19:09.299Z,12.41
2022-11-04T09:21:38.936Z,12.81
2022-11-04T09:24:09.081Z,13.00
2022-11-04T09:26:38.105Z,13.20
2022-11-04T09:29:06.842Z,13.29
2022-11-04T09:31:35.117Z,13.12
2022-11-04T09:34:03.510Z,13.29
2022-11-04T09:36:31.797Z,13.51
2022-11-04T09:39:01.462Z,13.66
2022-11-04T09:42:22.695Z,13.77
2022-11-04T09:47:48.207Z,13.73
2022-11-04T09:50:24.887Z,13.85
2022-11-04T09:53:00.018Z,13.83
2022-11-04T09:55:37.069Z,14.04
2022-11-04T09:58:06.002Z,14.14
2022-11-04T10:00:39.084Z,13.91
2022-11-04T10:03:24.856Z,13.76
2022-11-04T10:06:09.637Z,13.69
2022-11-04T10:09:11.512Z,13.80
2022-11-04T10:11:49.818Z,13.96
2022-11-04T10:14:51.931Z,14.18
2022-11-04T10:17:41.422Z,14.18
2022-11-04T10:20:33.001Z,14.23
2022-11-04T10:23:12.853Z,14.59
2022-11-04T10:25:50.542Z,14.37
2022-11-04T10:28:31.806Z,14.40
2022-11-04T10:31:01.612Z,14.30
2022-11-04T10:33:35.715Z,14.22
2022-11-04T10:36:08.312Z,14.51
2022-11-04T10:38:43.712Z,14.85
2022-11-04T10:41:30.860Z,14.76
2022-11-04T10:44:05.498Z,14.81
2022-11-04T10:46:48.452Z,15.19
2022-11-04T10:50:28.303Z,15.41
2022-11-04T10:53:12.221Z,15.26
2022-11-04T10:55:50.542Z,15.21
2022-11-04T10:58:25.321Z,15.12
2022-11-04T11:00:55.996Z,15.24
2022-11-04T11:03:29.103Z,14.74
2022-11-04T11:06:16.263Z,15.31
2022-11-04T11:08:46.057Z,15.43
2022-11-04T11:11:16.047Z,15.29
2022-11-04T11:13:46.532Z,14.80
2022-11-04T11:16:21.870Z,15.44
2022-11-04T11:19:17.027Z,15.26
2022-11-04T11:21:49.076Z,15.29
2022-11-04T11:24:22.458Z,16.01
2022-11-04T11:26:53.753Z,15.89
2022-11-04T11:29:27.795Z,15.94
2022-11-04T11:32:00.670Z,16.16
2022-11-04T11:34:33.553Z,16.40
2022-11-04T11:37:04.884Z,16.36
2022-11-04T11:39:35.707Z,16.12
2022-11-04T11:42:09.271Z,16.27
2022-11-04T11:44:44.453Z,15.86
2022-11-04T11:47:22.747Z,15.77
2022-11-04T11:50:15.917Z,15.43
2022-11-04T11:52:45.847Z,16.00
2022-11-04T11:55:19.752Z,16.21
2022-11-04T12:01:03.154Z,15.59
2022-11-04T12:09:44.938Z,15.84
2022-11-04T12:12:35.467Z,15.95
2022-11-04T12:15:21.903Z,15.83
2022-11-04T12:18:09.550Z,15.69
2022-11-04T12:20:51.742Z,15.50
2022-11-04T12:23:29.314Z,15.49
2022-11-04T12:26:14.204Z,15.29
2022-11-04T12:29:00.581Z,15.07
2022-11-04T12:31:43.304Z,15.22
2022-11-04T12:34:23.592Z,15.30
2022-11-04T12:37:10.125Z,15.38
2022-11-04T12:39:58.784Z,15.01
2022-11-04T12:42:42.366Z,14.92
2022-11-04T12:45:31.935Z,15.17
2022-11-04T12:48:11.006Z,15.59
2022-11-04T12:51:02.424Z,15.45
2022-11-04T12:54:33.568Z,15.76
2022-11-04T12:57:17.244Z,15.86
2022-11-04T13:00:06.294Z,15.78
2022-11-04T13:02:42.041Z,15.37
2022-11-04T13:05:37.583Z,15.97
2022-11-04T13:08:20.245Z,15.94
2022-11-04T13:10:56.778Z,15.74
2022-11-04T13:13:32.997Z,16.02
2022-11-04T13:16:07.638Z,15.61
2022-11-04T13:18:41.323Z,15.85
2022-11-04T13:21:16.724Z,15.54
2022-11-04T13:23:53.444Z,15.84
2022-11-04T13:26:23.263Z,15.60
2022-11-04T13:29:07.498Z,14.49
2022-11-04T13:31:51.708Z,13.58
2022-11-04T13:34:33.250Z,13.24
2022-11-04T13:37:16.054Z,13.31
2022-11-04T13:39:48.736Z,13.18
2022-11-04T13:43:20.959Z,13.04
2022-11-04T13:45:53.109Z,13.18
2022-11-04T13:48:25.184Z,13.01
2022-11-04T13:51:01.464Z,13.25
2022-11-04T13:53:47.196Z,12.90
2022-11-04T13:56:35.041Z,13.11
2022-11-04T13:59:29.830Z,12.98
2022-11-04T14:02:36.627Z,12.90
2022-11-04T14:06:01.970Z,13.46
2022-11-04T14:08:31.101Z,13.70
2022-11-04T14:11:12.865Z,13.79
2022-11-04T14:14:03.314Z,13.31
2022-11-04T14:16:57.076Z,13.78
2022-11-04T14:20:00.743Z,13.70
2022-11-04T14:22:49.169Z,13.69
2022-11-04T14:25:32.242Z,14.01
2022-11-04T14:28:02.774Z,13.67
2022-11-04T14:30:46.504Z,13.66
2022-11-04T14:33:52.136Z,13.81
2022-11-04T14:36:38.286Z,13.48
2022-11-04T14:39:23.475Z,13.51
2022-11-04T14:42:00.051Z,13.78
2022-11-04T14:44:33.887Z,13.50
2022-11-04T14:47:15.728Z,13.06
2022-11-04T14:49:51.121Z,13.20
2022-11-04T14:52:27.648Z,13.27
2022-11-04T14:55:03.464Z,13.65
2022-11-04T14:57:38.285Z,13.50
2022-11-04T15:00:33.407Z,13.50
2022-11-04T15:03:51.962Z,13.82
2022-11-04T15:06:08.644Z,13.80
2022-11-04T15:08:43.772Z,13.84
2022-11-04T15:11:17.737Z,13.91
2022-11-04T15:13:48.789Z,13.67
2022-11-04T15:16:21.438Z,13.71
2022-11-04T15:18:51.308Z,13.88
2022-11-04T15:21:21.451Z,13.57
2022-11-04T15:23:52.322Z,13.88
2022-11-04T15:26:29.494Z,13.68
2022-11-04T15:29:00.316Z,13.72
2022-11-04T15:31:31.411Z,13.58
2022-11-04T15:34:03.232Z,13.75
2022-11-04T15:36:36.059Z,13.70
2022-11-04T15:39:10.523Z,13.36
2022-11-04T15:41:58.907Z,13.29
2022-11-04T15:44:29.589Z,13.28
2022-11-04T15:47:00.674Z,13.40
2022-11-04T15:49:31.716Z,13.23
2022-11-04T15:52:06.002Z,13.43
2022-11-04T15:54:38.377Z,13.43
2022-11-04T15:57:15.491Z,13.27
2022-11-04T15:59:51.650Z,12.81
2022-11-04T16:02:28.010Z,13.29
2022-11-04T16:05:21.046Z,13.11
2022-11-04T16:07:53.246Z,13.07
2022-11-04T16:10:30.510Z,12.40
2022-11-04T16:13:01.438Z,13.11
2022-11-04T16:15:40.437Z,13.02
2022-11-04T16:18:23.718Z,12.85
2022-11-04T16:20:54.047Z,12.88
2022-11-04T16:23:27.979Z,12.91
2022-11-04T16:26:00.837Z,12.86
2022-11-04T16:28:31.500Z,12.85
2022-11-04T16:31:02.795Z,12.44
2022-11-04T16:33:31.267Z,12.69
2022-11-04T16:35:59.541Z,12.44
2022-11-04T16:38:29.323Z,12.25
2022-11-04T16:40:57.579Z,12.37
2022-11-04T16:43:26.241Z,12.48
2022-11-04T16:45:54.527Z,12.31
2022-11-04T16:48:24.625Z,12.48
2022-11-04T16:50:53.014Z,12.44
2022-11-04T16:53:21.305Z,12.13
2022-11-04T16:55:51.735Z,12.38
2022-11-04T16:58:20.532Z,11.95
2022-11-04T17:00:49.201Z,12.21
2022-11-04T17:03:21.599Z,11.94
2022-11-04T17:05:50.972Z,12.06
2022-11-04T17:08:19.397Z,11.88
2022-11-04T17:10:48.719Z,12.11
2022-11-04T17:13:18.440Z,12.04
2022-11-04T17:15:47.231Z,12.08
2022-11-04T17:18:17.857Z,11.62
2022-11-04T17:20:50.610Z,11.69
2022-11-04T17:23:19.764Z,11.57
2022-11-04T17:25:49.659Z,11.91
2022-11-04T17:28:19.833Z,11.91
2022-11-04T17:30:48.426Z,11.54
2022-11-04T17:33:19.226Z,11.95
2022-11-04T17:35:51.865Z,11.77
2022-11-04T17:38:20.749Z,11.95
2022-11-04T17:41:06.719Z,11.97
2022-11-04T17:43:53.888Z,11.96
2022-11-04T17:46:39.029Z,11.93
2022-11-04T17:49:12.524Z,11.67
2022-11-04T17:51:43.365Z,10.90
2022-11-04T17:54:12.562Z,11.54
2022-11-04T17:56:42.019Z,11.71
2022-11-04T17:59:14.325Z,11.45
2022-11-04T18:01:44.493Z,11.69
2022-11-04T18:04:17.176Z,11.56
2022-11-04T18:06:45.802Z,11.24
2022-11-04T18:09:15.527Z,11.47
2022-11-04T18:12:02.618Z,11.25
2022-11-04T18:14:33.193Z,11.23
2022-11-04T18:17:01.877Z,11.47
2022-11-04T18:19:31.196Z,11.25
2022-11-04T18:21:59.592Z,11.38
2022-11-04T18:24:28.147Z,11.08
2022-11-04T18:27:00.890Z,11.23
2022-11-04T18:29:29.334Z,10.74
2022-11-04T18:31:59.068Z,11.20
2022-11-04T18:34:27.532Z,11.01
2022-11-04T18:36:58.172Z,10.61
2022-11-04T18:39:27.339Z,10.97
2022-11-04T18:41:55.600Z,10.99
2022-11-04T18:44:24.314Z,10.99
2022-11-04T18:46:52.945Z,10.63
2022-11-04T18:49:22.764Z,10.90
2022-11-04T18:51:51.125Z,10.79
2022-11-04T18:54:19.765Z,10.95
2022-11-04T18:56:48.219Z,10.79
2022-11-04T18:59:17.210Z,10.79
2022-11-04T19:01:46.332Z,10.92
2022-11-04T19:04:14.795Z,11.01
2022-11-04T19:06:45.946Z,10.83
2022-11-04T19:09:46.200Z,10.93
2022-11-04T19:12:23.901Z,10.97
2022-11-04T19:14:53.324Z,10.91
2022-11-04T19:17:21.859Z,10.78
2022-11-04T19:19:51.548Z,10.86
2022-11-04T19:22:21.237Z,10.42
2022-11-04T19:24:49.745Z,10.39
2022-11-04T19:27:19.755Z,10.72
2022-11-04T19:29:48.040Z,10.70
2022-11-04T19:32:16.356Z,10.36
2022-11-04T19:34:45.365Z,10.61
2022-11-04T19:37:14.160Z,10.22
2022-11-04T19:39:44.155Z,10.52
2022-11-04T19:42:30.925Z,10.53
2022-11-04T19:44:59.207Z,10.53
2022-11-04T19:47:28.006Z,10.50
2022-11-04T19:49:56.699Z,10.24
2022-11-04T19:52:25.101Z,10.45
2022-11-04T19:54:54.819Z,10.44
2022-11-04T19:57:23.294Z,10.29
2022-11-04T19:59:52.391Z,10.35
2022-11-04T20:02:21.806Z,10.31
2022-11-04T20:04:50.244Z,10.34
2022-11-04T20:07:18.747Z,10.09
2022-11-04T20:09:47.077Z,10.31
2022-11-04T20:12:34.047Z,10.31
2022-11-04T20:15:02.429Z,10.13
2022-11-04T20:17:32.674Z,10.36
2022-11-04T20:20:00.997Z,10.37
2022-11-04T20:22:29.302Z,10.43
2022-11-04T20:24:57.887Z,10.52
2022-11-04T20:27:27.519Z,10.55
2022-11-04T20:29:55.831Z,10.61
2022-11-04T20:32:24.108Z,10.65
2022-11-04T20:34:53.442Z,10.63
2022-11-04T20:37:21.710Z,10.68
2022-11-04T20:39:50.337Z,10.73
2022-11-04T20:42:18.872Z,10.87
2022-11-04T20:44:48.849Z,10.84
2022-11-04T20:47:18.049Z,10.87
2022-11-04T20:49:47.055Z,10.85
2022-11-04T20:52:15.575Z,10.86
2022-11-04T20:54:44.069Z,10.82
2022-11-04T20:57:12.313Z,11.01
2022-11-04T20:59:40.637Z,11.19
2022-11-04T21:02:13.088Z,11.21
2022-11-04T21:04:41.551Z,11.40
2022-11-04T21:07:10.031Z,11.46
2022-11-04T21:09:38.632Z,11.36
2022-11-04T21:12:08.294Z,11.08
2022-11-04T21:14:36.655Z,11.49
2022-11-04T21:17:07.150Z,11.40
2022-11-04T21:19:36.820Z,11.23
2022-11-04T21:22:05.079Z,11.27
2022-11-04T21:24:38.954Z,11.26
2022-11-04T21:27:08.006Z,11.07
2022-11-04T21:29:36.336Z,10.88
2022-11-04T21:32:04.777Z,11.04
2022-11-04T21:34:33.026Z,10.58
2022-11-04T21:37:02.712Z,10.81
2022-11-04T21:39:31.173Z,10.77
2022-11-04T21:41:59.732Z,10.67
2022-11-04T21:44:28.251Z,10.55
2022-11-04T21:46:56.556Z,10.78
2022-11-04T21:49:24.848Z,10.81
2022-11-04T21:51:53.436Z,11.18
2022-11-04T21:54:23.844Z,11.25
2022-11-04T21:56:52.317Z,11.07
2022-11-04T21:59:20.909Z,10.99
2022-11-04T22:01:49.358Z,11.26
2022-11-04T22:04:17.717Z,11.06
2022-11-04T22:06:47.065Z,11.10
2022-11-04T22:09:15.760Z,11.02
2022-11-04T22:11:45.465Z,10.92
2022-11-04T22:14:14.182Z,10.87
2022-11-04T22:16:42.735Z,10.79
2022-11-04T22:19:13.821Z,10.61
2022-11-04T22:21:45.413Z,10.57
2022-11-04T22:24:16.208Z,10.39
2022-11-04T22:26:47.779Z,10.63
2022-11-04T22:29:16.615Z,10.64
2022-11-04T22:31:45.040Z,10.30
2022-11-04T22:34:13.357Z,10.57
2022-11-04T22:36:41.661Z,10.51
2022-11-04T22:39:16.328Z,10.33
2022-11-04T22:41:47.231Z,10.36
2022-11-04T22:44:16.127Z,10.12
2022-11-04T22:46:44.584Z,10.26
2022-11-04T22:49:14.400Z,10.24
2022-11-04T22:51:42.796Z,10.22
2022-11-04T22:54:11.551Z,10.16
2022-11-04T22:56:40.159Z,10.09
2022-11-04T22:59:11.312Z,10.11
2022-11-04T23:01:40.265Z,9.98
2022-11-04T23:04:12.492Z,10.14
2022-11-04T23:06:41.250Z,10.19
2022-11-04T23:09:11.048Z,10.21
2022-11-04T23:11:56.810Z,10.15
2022-11-04T23:14:49.466Z,10.05
2022-11-04T23:17:37.131Z,9.68
2022-11-04T23:20:10.561Z,9.71
2022-11-04T23:22:56.892Z,9.72
2022-11-04T23:25:25.936Z,9.44
2022-11-04T23:28:13.756Z,9.37
2022-11-04T23:30:47.421Z,9.30
2022-11-04T23:33:16.399Z,9.50
2022-11-04T23:36:04.945Z,9.21
2022-11-04T23:38:35.294Z,9.27
2022-11-04T23:41:24.775Z,9.15
2022-11-04T23:43:53.531Z,8.95
2022-11-04T23:46:43.377Z,9.21
2022-11-04T23:49:26.762Z,9.02
2022-11-04T23:52:12.409Z,9.19
2022-11-04T23:54:58.369Z,8.85
2022-11-04T23:57:44.041Z,9.11
